createdAt,value
2023-05-09T00:00:56.672Z,456.00
2023-05-09T00:01:56.709Z,439.00
2023-05-09T00:02:56.669Z,440.00
2023-05-09T00:03:56.679Z,448.00
2023-05-09T00:04:56.653Z,461.00
2023-05-09T00:05:56.638Z,486.00
2023-05-09T00:06:56.635Z,500.00
2023-05-09T00:07:56.634Z,500.00
2023-05-09T00:08:56.615Z,501.00
2023-05-09T00:09:56.621Z,503.00
2023-05-09T00:10:56.728Z,500.00
2023-05-09T00:11:56.653Z,500.00
2023-05-09T00:12:56.768Z,505.00
2023-05-09T00:13:56.757Z,500.00
2023-05-09T00:14:56.877Z,503.00
2023-05-09T00:15:56.865Z,502.00
2023-05-09T00:16:56.947Z,501.00
2023-05-09T00:17:57.751Z,501.00
2023-05-09T00:18:56.994Z,500.00
2023-05-09T00:19:57.069Z,504.00
2023-05-09T00:20:57.120Z,500.00
2023-05-09T00:21:57.189Z,505.00
2023-05-09T00:22:57.251Z,500.00
2023-05-09T00:23:57.302Z,501.00
2023-05-09T00:24:57.342Z,500.00
2023-05-09T00:25:57.396Z,501.00
2023-05-09T00:26:57.594Z,500.00
2023-05-09T00:27:57.522Z,505.00
2023-05-09T00:28:57.574Z,507.00
2023-05-09T00:29:57.668Z,500.00
2023-05-09T00:30:57.691Z,500.00
2023-05-09T00:31:58.756Z,500.00
2023-05-09T00:32:57.827Z,507.00
2023-05-09T00:33:57.864Z,500.00
2023-05-09T00:34:57.907Z,505.00
2023-05-09T00:35:57.978Z,500.00
2023-05-09T00:36:58.017Z,500.00
2023-05-09T00:37:58.062Z,503.00
2023-05-09T00:38:58.111Z,503.00
2023-05-09T00:39:58.171Z,505.00
2023-05-09T00:40:58.237Z,501.00
2023-05-09T00:41:58.284Z,502.00
2023-05-09T00:42:58.476Z,501.00
2023-05-09T00:43:58.411Z,503.00
2023-05-09T00:44:58.466Z,502.00
2023-05-09T00:45:58.556Z,502.00
2023-05-09T00:46:58.596Z,500.00
2023-05-09T00:47:58.704Z,500.00
2023-05-09T00:48:58.720Z,500.00
2023-05-09T00:49:58.774Z,503.00
2023-05-09T00:50:58.842Z,506.00
2023-05-09T00:51:58.912Z,505.00
2023-05-09T00:52:58.961Z,501.00
2023-05-09T00:53:58.985Z,501.00
2023-05-09T00:54:59.039Z,504.00
2023-05-09T00:55:59.093Z,503.00
2023-05-09T00:56:59.151Z,501.00
2023-05-09T00:57:59.244Z,505.00
2023-05-09T00:58:59.392Z,505.00
2023-05-09T00:59:59.362Z,503.00
2023-05-09T01:00:59.457Z,503.00
2023-05-09T01:01:59.474Z,502.00
2023-05-09T01:02:59.626Z,502.00
2023-05-09T01:03:59.585Z,504.00
2023-05-09T01:04:59.612Z,502.00
2023-05-09T01:06:00.111Z,501.00
2023-05-09T01:06:59.785Z,508.00
2023-05-09T01:07:59.791Z,501.00
2023-05-09T01:08:59.861Z,505.00
2023-05-09T01:09:59.914Z,502.00
2023-05-09T01:10:59.984Z,504.00
2023-05-09T01:12:00.058Z,502.00
2023-05-09T01:13:00.380Z,503.00
2023-05-09T01:14:00.179Z,500.00
2023-05-09T01:15:00.283Z,504.00
2023-05-09T01:16:00.289Z,502.00
2023-05-09T01:17:00.288Z,502.00
2023-05-09T01:18:00.392Z,504.00
2023-05-09T01:19:00.356Z,504.00
2023-05-09T01:20:00.409Z,510.00
2023-05-09T01:21:00.445Z,505.00
2023-05-09T01:22:00.494Z,504.00
2023-05-09T01:23:00.533Z,501.00
2023-05-09T01:24:01.428Z,505.00
2023-05-09T01:25:00.649Z,504.00
2023-05-09T01:26:00.730Z,504.00
2023-05-09T01:27:00.776Z,500.00
2023-05-09T01:28:00.849Z,510.00
2023-05-09T01:29:00.887Z,506.00
2023-05-09T01:30:00.948Z,505.00
2023-05-09T01:31:01.614Z,503.00
2023-05-09T01:32:01.060Z,502.00
2023-05-09T01:33:01.166Z,502.00
2023-05-09T01:34:01.142Z,505.00
2023-05-09T01:35:01.226Z,505.00
2023-05-09T01:36:01.267Z,504.00
2023-05-09T01:37:01.308Z,502.00
2023-05-09T01:38:01.357Z,502.00
2023-05-09T01:39:01.935Z,503.00
2023-05-09T01:40:01.537Z,504.00
2023-05-09T01:41:01.556Z,500.00
2023-05-09T01:42:01.623Z,504.00
2023-05-09T01:43:01.679Z,503.00
2023-05-09T01:44:01.749Z,500.00
2023-05-09T01:45:01.779Z,509.00
2023-05-09T01:46:01.816Z,502.00
2023-05-09T01:47:02.049Z,502.00
2023-05-09T01:48:01.968Z,502.00
2023-05-09T01:49:01.961Z,508.00
2023-05-09T01:50:02.002Z,504.00
2023-05-09T01:51:03.668Z,504.00
2023-05-09T01:52:02.205Z,505.00
2023-05-09T01:53:02.289Z,510.00
2023-05-09T01:54:02.315Z,504.00
2023-05-09T01:55:02.455Z,504.00
2023-05-09T01:56:02.433Z,504.00
2023-05-09T01:57:02.492Z,505.00
2023-05-09T01:58:02.546Z,508.00
2023-05-09T01:59:02.601Z,505.00
2023-05-09T02:00:02.638Z,502.00
2023-05-09T02:01:02.749Z,504.00
2023-05-09T02:02:02.729Z,505.00
2023-05-09T02:03:02.927Z,504.00
2023-05-09T02:04:02.874Z,502.00
2023-05-09T02:05:02.850Z,503.00
2023-05-09T02:06:02.884Z,502.00
2023-05-09T02:07:02.936Z,500.00
2023-05-09T02:08:02.967Z,503.00
2023-05-09T02:09:03.001Z,503.00
2023-05-09T02:10:03.047Z,503.00
2023-05-09T02:11:03.101Z,503.00
2023-05-09T02:12:03.139Z,504.00
2023-05-09T02:13:03.217Z,505.00
2023-05-09T02:14:03.216Z,506.00
2023-05-09T02:15:03.264Z,503.00
2023-05-09T02:16:03.291Z,503.00
2023-05-09T02:17:03.380Z,501.00
2023-05-09T02:18:03.394Z,505.00
2023-05-09T02:19:03.496Z,505.00
2023-05-09T02:20:03.403Z,500.00
2023-05-09T02:21:03.479Z,509.00
2023-05-09T02:22:03.457Z,505.00
2023-05-09T02:23:03.486Z,502.00
2023-05-09T02:24:03.564Z,502.00
2023-05-09T02:25:03.541Z,503.00
2023-05-09T02:26:03.564Z,508.00
2023-05-09T02:27:03.612Z,507.00
2023-05-09T02:28:03.642Z,507.00
2023-05-09T02:29:03.691Z,506.00
2023-05-09T02:30:03.714Z,502.00
2023-05-09T02:31:03.745Z,506.00
2023-05-09T02:32:03.824Z,503.00
2023-05-09T02:33:03.823Z,510.00
2023-05-09T02:34:03.829Z,508.00
2023-05-09T02:35:04.014Z,506.00
2023-05-09T02:36:03.888Z,506.00
2023-05-09T02:37:03.937Z,509.00
2023-05-09T02:38:03.988Z,505.00
2023-05-09T02:39:04.014Z,504.00
2023-05-09T02:40:04.035Z,505.00
2023-05-09T02:41:04.041Z,508.00
2023-05-09T02:42:04.071Z,503.00
2023-05-09T02:43:04.084Z,506.00
2023-05-09T02:44:04.114Z,504.00
2023-05-09T02:45:04.147Z,508.00
2023-05-09T02:46:04.174Z,509.00
2023-05-09T02:47:04.173Z,503.00
2023-05-09T02:48:06.911Z,508.00
2023-05-09T02:49:04.186Z,509.00
2023-05-09T02:50:04.189Z,509.00
2023-05-09T02:51:04.299Z,508.00
2023-05-09T02:52:04.172Z,506.00
2023-05-09T02:53:04.154Z,504.00
2023-05-09T02:54:04.155Z,505.00
2023-05-09T02:55:04.161Z,507.00
2023-05-09T02:56:04.185Z,505.00
2023-05-09T02:57:04.226Z,503.00
2023-05-09T02:58:13.523Z,505.00
2023-05-09T02:59:04.257Z,505.00
2023-05-09T03:00:04.246Z,506.00
2023-05-09T03:01:04.282Z,507.00
2023-05-09T03:02:04.225Z,507.00
2023-05-09T03:03:04.272Z,510.00
2023-05-09T03:04:04.216Z,504.00
2023-05-09T03:05:04.230Z,506.00
2023-05-09T03:06:04.192Z,504.00
2023-05-09T03:07:04.323Z,503.00
2023-05-09T03:08:04.983Z,506.00
2023-05-09T03:09:04.175Z,509.00
2023-05-09T03:10:04.190Z,506.00
2023-05-09T03:11:04.167Z,504.00
2023-05-09T03:12:04.189Z,502.00
2023-05-09T03:13:04.173Z,506.00
2023-05-09T03:14:04.155Z,504.00
2023-05-09T03:15:04.140Z,504.00
2023-05-09T03:16:04.143Z,503.00
2023-05-09T03:17:04.122Z,507.00
2023-05-09T03:18:04.136Z,501.00
2023-05-09T03:19:04.106Z,502.00
2023-05-09T03:20:04.593Z,502.00
2023-05-09T03:21:04.094Z,501.00
2023-05-09T03:22:04.092Z,503.00
2023-05-09T03:23:04.206Z,502.00
2023-05-09T03:24:04.064Z,502.00
2023-05-09T03:25:04.105Z,505.00
2023-05-09T03:26:04.055Z,501.00
2023-05-09T03:27:04.063Z,506.00
2023-05-09T03:28:04.042Z,506.00
2023-05-09T03:29:04.044Z,502.00
2023-05-09T03:30:04.028Z,507.00
2023-05-09T03:31:04.037Z,505.00
2023-05-09T03:32:04.025Z,503.00
2023-05-09T03:33:04.094Z,503.00
2023-05-09T03:34:04.051Z,506.00
2023-05-09T03:35:04.050Z,502.00
2023-05-09T03:36:04.069Z,503.00
2023-05-09T03:37:04.104Z,503.00
2023-05-09T03:38:04.133Z,504.00
2023-05-09T03:39:04.285Z,503.00
2023-05-09T03:40:04.192Z,505.00
2023-05-09T03:41:04.251Z,500.00
2023-05-09T03:42:04.266Z,508.00
2023-05-09T03:43:04.272Z,511.00
2023-05-09T03:44:04.308Z,504.00
2023-05-09T03:45:04.330Z,509.00
2023-05-09T03:46:04.325Z,509.00
2023-05-09T03:47:04.402Z,511.00
2023-05-09T03:48:04.439Z,505.00
2023-05-09T03:49:04.418Z,502.00
2023-05-09T03:50:04.446Z,504.00
2023-05-09T03:51:04.481Z,507.00
2023-05-09T03:52:04.525Z,509.00
2023-05-09T03:53:04.543Z,501.00
2023-05-09T03:54:04.572Z,506.00
2023-05-09T03:55:04.722Z,507.00
2023-05-09T03:56:04.631Z,504.00
2023-05-09T03:57:04.672Z,502.00
2023-05-09T03:58:04.709Z,505.00
2023-05-09T03:59:04.727Z,503.00
2023-05-09T04:00:04.724Z,506.00
2023-05-09T04:01:04.754Z,502.00
2023-05-09T04:02:04.814Z,505.00
2023-05-09T04:03:04.885Z,502.00
2023-05-09T04:04:04.911Z,503.00
2023-05-09T04:05:04.866Z,500.00
2023-05-09T04:06:04.897Z,502.00
2023-05-09T04:07:04.917Z,505.00
2023-05-09T04:08:04.952Z,501.00
2023-05-09T04:09:04.993Z,506.00
2023-05-09T04:10:05.038Z,506.00
2023-05-09T04:11:05.188Z,502.00
2023-05-09T04:12:05.093Z,502.00
2023-05-09T04:13:05.224Z,504.00
2023-05-09T04:14:05.152Z,503.00
2023-05-09T04:15:05.188Z,504.00
2023-05-09T04:16:05.222Z,500.00
2023-05-09T04:17:05.418Z,503.00
2023-05-09T04:18:05.324Z,500.00
2023-05-09T04:19:05.348Z,501.00
2023-05-09T04:20:05.374Z,504.00
2023-05-09T04:21:05.380Z,502.00
2023-05-09T04:22:05.408Z,504.00
2023-05-09T04:23:05.411Z,502.00
2023-05-09T04:24:05.421Z,500.00
2023-05-09T04:25:05.434Z,507.00
2023-05-09T04:26:05.484Z,510.00
2023-05-09T04:27:05.624Z,501.00
2023-05-09T04:28:05.541Z,508.00
2023-05-09T04:29:05.566Z,504.00
2023-05-09T04:30:05.546Z,503.00
2023-05-09T04:31:06.077Z,501.00
2023-05-09T04:32:05.637Z,501.00
2023-05-09T04:33:05.710Z,503.00
2023-05-09T04:34:05.636Z,508.00
2023-05-09T04:35:05.659Z,503.00
2023-05-09T04:36:05.690Z,508.00
2023-05-09T04:37:05.746Z,502.00
2023-05-09T04:38:05.739Z,502.00
2023-05-09T04:39:05.765Z,504.00
2023-05-09T04:40:05.797Z,504.00
2023-05-09T04:41:05.814Z,501.00
2023-05-09T04:42:05.806Z,505.00
2023-05-09T04:43:05.894Z,505.00
2023-05-09T04:44:05.821Z,507.00
2023-05-09T04:45:05.821Z,500.00
2023-05-09T04:46:05.902Z,508.00
2023-05-09T04:47:05.855Z,505.00
2023-05-09T04:48:05.938Z,511.00
2023-05-09T04:49:05.977Z,503.00
2023-05-09T04:50:05.946Z,503.00
2023-05-09T04:51:05.896Z,506.00
2023-05-09T04:52:05.898Z,504.00
2023-05-09T04:53:05.888Z,506.00
2023-05-09T04:54:05.899Z,504.00
2023-05-09T04:55:05.937Z,507.00
2023-05-09T04:56:05.903Z,504.00
2023-05-09T04:57:16.642Z,503.00
2023-05-09T04:58:05.913Z,504.00
2023-05-09T04:59:06.033Z,505.00
2023-05-09T05:00:05.886Z,505.00
2023-05-09T05:01:05.885Z,504.00
2023-05-09T05:02:05.914Z,510.00
2023-05-09T05:03:05.914Z,504.00
2023-05-09T05:04:05.867Z,505.00
2023-05-09T05:05:11.492Z,502.00
2023-05-09T05:06:05.858Z,503.00
2023-05-09T05:07:05.842Z,505.00
2023-05-09T05:08:05.826Z,505.00
2023-05-09T05:09:05.820Z,506.00
2023-05-09T05:10:05.813Z,504.00
2023-05-09T05:11:05.795Z,505.00
2023-05-09T05:12:07.413Z,504.00
2023-05-09T05:13:05.819Z,505.00
2023-05-09T05:14:05.788Z,505.00
2023-05-09T05:15:05.899Z,506.00
2023-05-09T05:16:05.834Z,505.00
2023-05-09T05:17:05.760Z,501.00
2023-05-09T05:18:05.836Z,502.00
2023-05-09T05:19:05.746Z,503.00
2023-05-09T05:20:05.744Z,505.00
2023-05-09T05:21:05.732Z,506.00
2023-05-09T05:22:05.737Z,507.00
2023-05-09T05:23:06.058Z,505.00
2023-05-09T05:24:05.709Z,506.00
2023-05-09T05:25:05.716Z,505.00
2023-05-09T05:26:05.701Z,506.00
2023-05-09T05:27:05.683Z,504.00
2023-05-09T05:28:06.062Z,509.00
2023-05-09T05:29:05.668Z,509.00
2023-05-09T05:30:05.675Z,507.00
2023-05-09T05:31:05.817Z,511.00
2023-05-09T05:32:06.060Z,509.00
2023-05-09T05:33:05.707Z,515.00
2023-05-09T05:34:05.628Z,511.00
2023-05-09T05:35:05.646Z,511.00
2023-05-09T05:36:05.624Z,515.00
2023-05-09T05:37:05.606Z,520.00
2023-05-09T05:38:06.098Z,511.00
2023-05-09T05:39:05.616Z,513.00
2023-05-09T05:40:05.589Z,513.00
2023-05-09T05:41:05.593Z,516.00
2023-05-09T05:42:05.583Z,517.00
2023-05-09T05:43:06.084Z,521.00
2023-05-09T05:44:08.767Z,517.00
2023-05-09T05:45:06.567Z,518.00
2023-05-09T05:46:05.585Z,519.00
2023-05-09T05:47:05.665Z,526.00
2023-05-09T05:48:06.049Z,538.00
2023-05-09T05:49:05.534Z,548.00
2023-05-09T05:50:05.526Z,550.00
2023-05-09T05:51:05.524Z,546.00
2023-05-09T05:52:05.518Z,541.00
2023-05-09T12:42:16.348Z,500.00
2023-05-09T12:43:17.031Z,500.00
2023-05-09T12:44:17.026Z,500.00
2023-05-09T12:45:17.453Z,500.00
2023-05-09T12:46:17.046Z,500.00
2023-05-09T12:47:17.103Z,500.00
2023-05-09T12:48:16.992Z,500.00
2023-05-09T12:49:16.990Z,500.00
2023-05-09T12:50:17.211Z,459.00
2023-05-09T12:51:16.976Z,482.00
2023-05-09T12:52:16.976Z,504.00
2023-05-09T12:53:16.963Z,500.00
2023-05-09T12:54:16.955Z,474.00
2023-05-09T12:55:17.268Z,502.00
2023-05-09T12:56:16.947Z,504.00
2023-05-09T12:57:16.936Z,500.00
2023-05-09T12:58:17.093Z,527.00
2023-05-09T12:59:16.923Z,570.00
2023-05-09T13:00:17.224Z,514.00
2023-05-09T13:01:16.942Z,512.00
2023-05-09T13:02:16.978Z,508.00
2023-05-09T13:03:16.960Z,529.00
2023-05-09T13:04:16.886Z,544.00
2023-05-09T13:05:17.048Z,562.00
2023-05-09T13:06:16.875Z,588.00
2023-05-09T13:07:16.877Z,585.00
2023-05-09T13:08:16.872Z,548.00
2023-05-09T13:09:16.858Z,500.00
2023-05-09T13:10:16.863Z,548.00
2023-05-09T13:11:17.277Z,523.00
2023-05-09T13:12:17.227Z,538.00
2023-05-09T13:13:16.897Z,557.00
2023-05-09T13:14:16.952Z,581.00
2023-05-09T13:15:17.504Z,553.00
2023-05-09T13:16:17.992Z,545.00
2023-05-09T13:17:16.798Z,543.00
2023-05-09T13:18:16.797Z,581.00
2023-05-09T13:19:16.788Z,594.00
2023-05-09T13:20:17.134Z,602.00
2023-05-09T13:21:17.232Z,646.00
2023-05-09T13:22:16.762Z,698.00
2023-05-09T13:23:16.763Z,758.00
2023-05-09T13:24:16.746Z,873.00
2023-05-09T13:25:16.760Z,986.00
2023-05-09T13:26:16.732Z,1332.00
2023-05-09T13:27:16.722Z,1186.00
2023-05-09T13:28:16.713Z,913.00
2023-05-09T13:29:16.707Z,980.00
2023-05-09T13:30:17.079Z,1032.00
2023-05-09T13:31:16.918Z,1128.00
2023-05-09T13:32:16.678Z,1285.00
2023-05-09T13:33:25.323Z,1358.00
2023-05-09T13:34:16.666Z,1361.00
2023-05-09T13:35:16.673Z,1401.00
2023-05-09T13:36:16.658Z,1482.00
2023-05-09T13:37:16.645Z,1650.00
2023-05-09T13:38:16.734Z,1825.00
2023-05-09T13:39:16.660Z,1886.00
2023-05-09T13:40:17.019Z,1961.00
2023-05-09T13:41:16.731Z,1939.00
2023-05-09T13:42:19.022Z,1965.00
2023-05-09T13:43:16.611Z,1968.00
2023-05-09T13:44:16.602Z,1976.00
2023-05-09T13:45:16.883Z,1995.00
2023-05-09T13:46:16.762Z,2022.00
2023-05-09T13:47:16.576Z,2057.00
2023-05-09T13:48:16.568Z,2082.00
2023-05-09T13:49:16.565Z,2094.00
2023-05-09T13:50:16.791Z,2139.00
2023-05-09T13:51:16.554Z,2156.00
2023-05-09T13:52:16.548Z,2161.00
2023-05-09T13:53:16.543Z,2131.00
2023-05-09T13:54:16.531Z,2134.00
2023-05-09T13:55:16.521Z,2155.00
2023-05-09T13:56:16.514Z,2164.00
2023-05-09T13:57:16.521Z,2161.00
2023-05-09T13:58:16.508Z,2174.00
2023-05-09T13:59:16.501Z,2198.00
2023-05-09T14:00:17.150Z,2215.00
2023-05-09T14:01:16.523Z,2220.00
2023-05-09T14:02:16.597Z,2207.00
2023-05-09T14:03:16.492Z,2216.00
2023-05-09T14:04:16.622Z,2224.00
2023-05-09T14:05:16.511Z,2240.00
2023-05-09T14:06:16.446Z,2215.00
2023-05-09T14:07:16.460Z,2210.00
2023-05-09T14:08:16.430Z,2209.00
2023-05-09T14:09:16.430Z,2207.00
2023-05-09T14:10:16.488Z,2210.00
2023-05-09T14:11:16.490Z,2182.00
2023-05-09T14:12:16.399Z,2182.00
2023-05-09T14:13:16.407Z,2194.00
2023-05-09T14:14:16.390Z,2166.00
2023-05-09T14:15:16.424Z,2182.00
2023-05-09T14:16:16.404Z,2181.00
2023-05-09T14:17:16.371Z,2191.00
2023-05-09T14:18:19.163Z,2198.00
2023-05-09T14:19:16.401Z,2199.00
2023-05-09T14:20:16.911Z,2181.00
2023-05-09T14:21:16.445Z,2198.00
2023-05-09T14:22:16.465Z,2200.00
2023-05-09T14:23:16.468Z,2228.00
2023-05-09T14:24:16.671Z,2202.00
2023-05-09T14:25:16.478Z,2187.00
2023-05-09T14:26:16.477Z,2196.00
2023-05-09T14:27:16.486Z,2208.00
2023-05-09T14:28:16.488Z,2205.00
2023-05-09T14:29:16.497Z,2174.00
2023-05-09T14:30:16.721Z,2178.00
2023-05-09T14:31:16.559Z,2167.00
2023-05-09T14:32:16.499Z,2195.00
2023-05-09T14:33:16.492Z,2185.00
2023-05-09T14:34:16.638Z,2171.00
2023-05-09T14:35:16.546Z,2192.00
2023-05-09T14:36:16.768Z,2176.00
2023-05-09T14:37:17.249Z,2196.00
2023-05-09T14:38:16.502Z,2193.00
2023-05-09T14:39:16.501Z,2206.00
2023-05-09T14:40:17.074Z,2181.00
2023-05-09T14:41:16.517Z,2184.00
2023-05-09T14:42:16.515Z,2186.00
2023-05-09T14:43:16.510Z,2178.00
2023-05-09T14:44:16.521Z,2140.00
2023-05-09T14:45:16.531Z,2166.00
2023-05-09T14:46:16.569Z,2161.00
2023-05-09T14:47:16.531Z,2142.00
2023-05-09T14:48:16.555Z,2134.00
2023-05-09T14:49:16.523Z,2156.00
2023-05-09T14:50:16.967Z,2149.00
2023-05-09T14:51:16.522Z,2175.00
2023-05-09T14:52:16.512Z,2180.00
2023-05-09T14:53:16.531Z,2176.00
2023-05-09T14:54:16.519Z,2192.00
2023-05-09T14:55:16.534Z,2151.00
2023-05-09T14:56:16.521Z,2186.00
2023-05-09T14:57:16.529Z,2157.00
2023-05-09T14:58:16.528Z,2143.00
2023-05-09T14:59:16.524Z,2141.00
2023-05-09T15:00:21.265Z,2175.00
2023-05-09T15:01:16.773Z,2176.00
2023-05-09T15:02:16.505Z,2182.00
2023-05-09T15:03:16.496Z,2175.00
2023-05-09T15:04:16.552Z,2191.00
2023-05-09T15:05:16.487Z,2179.00
2023-05-09T15:06:16.601Z,2168.00
2023-05-09T15:07:16.461Z,2166.00
2023-05-09T15:08:16.454Z,2175.00
2023-05-09T15:09:16.452Z,2178.00
2023-05-09T15:10:17.072Z,2173.00
2023-05-09T15:11:16.440Z,2132.00
2023-05-09T15:12:16.430Z,2170.00
2023-05-09T15:13:16.444Z,2158.00
2023-05-09T15:14:16.643Z,2166.00
2023-05-09T15:15:16.446Z,2159.00
2023-05-09T15:16:16.449Z,2169.00
2023-05-09T15:17:16.398Z,2179.00
2023-05-09T15:18:16.409Z,2135.00
2023-05-09T15:19:16.385Z,2178.00
2023-05-09T15:20:16.648Z,2136.00
2023-05-09T15:21:16.374Z,2159.00
2023-05-09T15:22:16.490Z,2139.00
2023-05-09T15:23:16.365Z,2130.00
2023-05-09T15:24:16.358Z,2135.00
2023-05-09T15:25:16.348Z,2135.00
2023-05-09T15:26:16.340Z,2159.00
2023-05-09T15:27:16.334Z,2176.00
2023-05-09T15:28:16.327Z,2148.00
2023-05-09T15:29:16.380Z,2180.00
2023-05-09T15:30:16.508Z,2161.00
2023-05-09T15:31:16.311Z,2162.00
2023-05-09T15:32:16.296Z,2180.00
2023-05-09T15:33:16.290Z,2142.00
2023-05-09T15:34:16.284Z,2124.00
2023-05-09T15:35:16.282Z,2155.00
2023-05-09T15:36:16.272Z,2127.00
2023-05-09T15:37:16.261Z,2112.00
2023-05-09T15:38:16.380Z,2147.00
2023-05-09T15:39:16.251Z,2127.00
2023-05-09T15:40:16.553Z,2138.00
2023-05-09T15:41:16.232Z,2114.00
2023-05-09T15:42:16.254Z,2131.00
2023-05-09T15:43:16.226Z,2150.00
2023-05-09T15:44:16.236Z,2129.00
2023-05-09T15:45:16.210Z,2120.00
2023-05-09T15:46:16.218Z,2116.00
2023-05-09T15:47:16.199Z,2131.00
2023-05-09T15:48:16.197Z,2114.00
2023-05-09T15:49:16.183Z,2134.00
2023-05-09T15:50:16.598Z,2134.00
2023-05-09T15:51:16.179Z,2115.00
2023-05-09T15:52:16.168Z,2139.00
2023-05-09T15:53:16.167Z,2122.00
2023-05-09T15:54:16.280Z,2090.00
2023-05-09T15:55:16.250Z,2106.00
2023-05-09T15:56:16.145Z,2112.00
2023-05-09T15:57:16.132Z,2109.00
2023-05-09T15:58:16.206Z,2131.00
2023-05-09T15:59:16.205Z,2110.00
2023-05-09T16:00:16.565Z,2137.00
2023-05-09T16:01:16.271Z,2114.00
2023-05-09T16:02:16.312Z,2103.00
2023-05-09T16:03:16.431Z,2099.00
2023-05-09T16:04:16.367Z,2082.00
2023-05-09T16:05:16.438Z,2078.00
2023-05-09T16:06:16.495Z,2089.00
2023-05-09T16:07:16.521Z,2107.00
2023-05-09T16:08:16.588Z,2084.00
2023-05-09T16:09:16.656Z,2101.00
2023-05-09T16:10:17.066Z,2085.00
2023-05-09T16:11:16.799Z,2113.00
2023-05-09T16:12:16.872Z,2125.00
2023-05-09T16:13:16.923Z,2109.00
2023-05-09T16:14:17.336Z,2115.00
2023-05-09T16:15:17.007Z,2080.00
2023-05-09T16:16:17.103Z,2099.00
2023-05-09T16:17:17.095Z,2110.00
2023-05-09T16:18:17.139Z,2096.00
2023-05-09T16:19:17.211Z,2098.00
2023-05-09T16:20:17.551Z,2088.00
2023-05-09T16:21:17.387Z,2064.00
2023-05-09T16:22:17.363Z,2096.00
2023-05-09T16:23:17.399Z,2118.00
2023-05-09T16:24:17.446Z,2127.00
2023-05-09T16:25:17.500Z,2089.00
2023-05-09T16:26:17.653Z,2076.00
2023-05-09T16:27:17.553Z,2095.00
2023-05-09T16:28:17.591Z,2076.00
2023-05-09T16:29:17.608Z,2065.00
2023-05-09T16:30:17.864Z,2076.00
2023-05-09T16:31:17.737Z,2111.00
2023-05-09T16:32:17.641Z,2071.00
2023-05-09T16:33:17.644Z,2087.00
2023-05-09T16:34:17.657Z,2081.00
2023-05-09T16:35:17.651Z,2076.00
2023-05-09T16:36:17.674Z,2086.00
2023-05-09T16:37:17.677Z,2084.00
2023-05-09T16:38:17.694Z,2059.00
2023-05-09T16:39:17.694Z,2053.00
2023-05-09T16:40:17.829Z,2062.00
2023-05-09T16:41:17.688Z,2055.00
2023-05-09T16:42:17.823Z,2071.00
2023-05-09T16:43:17.758Z,2076.00
2023-05-09T16:44:17.733Z,2064.00
2023-05-09T16:45:17.777Z,2071.00
2023-05-09T16:46:17.954Z,2090.00
2023-05-09T16:47:18.037Z,2057.00
2023-05-09T16:48:18.048Z,2026.00
2023-05-09T16:49:18.002Z,2043.00
2023-05-09T16:50:18.254Z,2038.00
2023-05-09T16:51:18.145Z,2077.00
2023-05-09T16:52:18.175Z,2049.00
2023-05-09T16:53:18.249Z,2025.00
2023-05-09T16:54:18.287Z,2051.00
2023-05-09T16:55:18.338Z,2034.00
2023-05-09T16:56:18.377Z,2060.00
2023-05-09T16:57:18.431Z,2008.00
2023-05-09T16:58:18.612Z,2031.00
2023-05-09T16:59:18.556Z,2052.00
2023-05-09T17:00:18.606Z,2033.00
2023-05-09T17:01:18.673Z,2036.00
2023-05-09T17:02:18.689Z,2037.00
2023-05-09T17:03:18.730Z,2007.00
2023-05-09T17:04:18.810Z,2035.00
2023-05-09T17:05:18.811Z,1988.00
2023-05-09T17:06:18.846Z,2023.00
2023-05-09T17:07:18.884Z,2044.00
2023-05-09T17:08:18.912Z,2004.00
2023-05-09T17:09:18.953Z,2033.00
2023-05-09T17:10:19.000Z,2017.00
2023-05-09T17:11:19.035Z,2023.00
2023-05-09T17:12:19.061Z,2021.00
2023-05-09T17:13:19.168Z,2017.00
2023-05-09T17:14:19.241Z,1999.00
2023-05-09T17:15:19.150Z,2018.00
2023-05-09T17:16:19.206Z,2004.00
2023-05-09T17:17:19.211Z,2045.00
2023-05-09T17:18:25.412Z,2024.00
2023-05-09T17:19:19.248Z,2025.00
2023-05-09T17:20:19.240Z,2027.00
2023-05-09T17:21:19.235Z,2033.00
2023-05-09T17:22:19.239Z,2026.00
2023-05-09T17:23:19.221Z,2021.00
2023-05-09T17:24:19.216Z,2033.00
2023-05-09T17:25:19.199Z,2025.00
2023-05-09T17:26:19.195Z,2000.00
2023-05-09T17:27:19.196Z,2003.00
2023-05-09T17:28:19.273Z,2030.00
2023-05-09T17:29:19.181Z,2012.00
2023-05-09T17:30:21.328Z,2013.00
2023-05-09T17:31:19.211Z,2015.00
2023-05-09T17:32:19.170Z,2020.00
2023-05-09T17:33:19.154Z,2027.00
2023-05-09T17:34:19.140Z,2015.00
2023-05-09T17:35:19.139Z,2043.00
2023-05-09T17:36:19.128Z,2031.00
2023-05-09T17:37:19.126Z,2019.00
2023-05-09T17:38:19.114Z,2015.00
2023-05-09T17:39:19.103Z,2020.00
2023-05-09T17:40:19.092Z,2009.00
2023-05-09T17:41:19.138Z,2005.00
2023-05-09T17:42:19.146Z,1987.00
2023-05-09T17:43:19.077Z,2009.00
2023-05-09T17:44:19.068Z,2012.00
2023-05-09T17:45:19.063Z,1997.00
2023-05-09T17:46:19.589Z,2007.00
2023-05-09T17:47:19.050Z,2022.00
2023-05-09T17:48:19.072Z,2010.00
2023-05-09T17:49:19.058Z,1985.00
2023-05-09T17:50:19.017Z,1997.00
2023-05-09T17:51:19.044Z,2033.00
2023-05-09T17:52:19.019Z,1990.00
2023-05-09T17:53:19.037Z,2004.00
2023-05-09T17:54:18.998Z,2010.00
2023-05-09T17:55:18.984Z,1997.00
2023-05-09T17:56:18.983Z,1985.00
2023-05-09T17:57:18.982Z,1976.00
2023-05-09T17:58:18.970Z,1994.00
2023-05-09T17:59:18.965Z,1994.00
2023-05-09T18:00:18.953Z,1981.00
2023-05-09T18:01:19.059Z,1975.00
2023-05-09T18:02:19.102Z,2000.00
2023-05-09T18:03:18.992Z,1974.00
2023-05-09T18:04:18.912Z,1977.00
2023-05-09T18:05:18.910Z,1947.00
2023-05-09T18:06:18.906Z,2001.00
2023-05-09T18:07:18.910Z,1963.00
2023-05-09T18:08:18.924Z,1996.00
2023-05-09T18:09:18.880Z,1970.00
2023-05-09T18:10:18.870Z,1989.00
2023-05-09T18:11:18.901Z,1955.00
2023-05-09T18:12:18.886Z,1987.00
2023-05-09T18:13:18.951Z,1947.00
2023-05-09T18:14:18.904Z,1970.00
2023-05-09T18:15:18.898Z,1981.00
2023-05-09T18:16:18.993Z,1986.00
2023-05-09T18:17:18.907Z,1976.00
2023-05-09T18:18:19.097Z,1988.00
2023-05-09T18:19:18.921Z,1962.00
2023-05-09T18:20:18.967Z,1945.00
2023-05-09T18:21:18.930Z,1958.00
2023-05-09T18:22:18.947Z,1958.00
2023-05-09T18:23:18.956Z,1975.00
2023-05-09T18:24:18.956Z,1956.00
2023-05-09T18:25:18.964Z,1954.00
2023-05-09T18:26:18.969Z,1971.00
2023-05-09T18:27:18.979Z,1969.00
2023-05-09T18:28:18.982Z,1949.00
2023-05-09T18:29:18.991Z,1931.00
2023-05-09T18:30:19.024Z,1931.00
2023-05-09T18:31:19.076Z,1956.00
2023-05-09T18:32:19.017Z,1952.00
2023-05-09T18:33:19.008Z,1944.00
2023-05-09T18:34:19.130Z,1943.00
2023-05-09T18:35:19.022Z,1930.00
2023-05-09T18:36:19.028Z,1934.00
2023-05-09T18:37:19.031Z,1929.00
2023-05-09T18:38:19.041Z,1932.00
2023-05-09T18:39:19.046Z,1951.00
2023-05-09T18:40:19.060Z,1934.00
2023-05-09T18:41:19.067Z,1934.00
2023-05-09T18:42:19.845Z,1945.00
2023-05-09T18:43:19.096Z,1939.00
2023-05-09T18:44:19.115Z,1937.00
2023-05-09T18:45:19.104Z,1929.00
2023-05-09T18:46:19.163Z,1930.00
2023-05-09T18:47:19.213Z,1932.00
2023-05-09T18:48:19.136Z,1933.00
2023-05-09T18:49:19.149Z,1926.00
2023-05-09T18:50:19.282Z,1929.00
2023-05-09T18:51:19.168Z,1929.00
2023-05-09T18:52:19.178Z,1920.00
2023-05-09T18:53:19.202Z,1925.00
2023-05-09T18:54:19.193Z,1913.00
2023-05-09T18:55:19.213Z,1914.00
2023-05-09T18:56:19.233Z,1923.00
2023-05-09T18:57:19.243Z,1929.00
2023-05-09T18:58:19.265Z,1911.00
2023-05-09T18:59:19.267Z,1899.00
2023-05-09T19:00:19.283Z,1921.00
2023-05-09T19:01:19.393Z,1915.00
2023-05-09T19:02:19.321Z,1906.00
2023-05-09T19:03:19.331Z,1899.00
2023-05-09T19:04:19.443Z,1912.00
2023-05-09T19:05:19.357Z,1894.00
2023-05-09T19:06:19.515Z,1914.00
2023-05-09T19:07:19.864Z,1912.00